Time;durP1;ratioP1;P1;durP2;ratioP2;P2;SDS_P1;SDS_P2;PMS_P1;PMS_P2;Temp;Humidity;BMP_temperature;BMP_pressure;BME280_temperature;BME280_humidity;BME280_pressure;Samples;Min_cycle;Max_cycle;Signal;HPM_P1;HPM_P2
2022/04/21 00:00:20;;;;;;;1.20;1.10;;;18.10;55.90;;;;;;5072286;28;20439;-67
2022/04/21 00:02:48;;;;;;;1.67;1.40;;;18.00;55.70;;;;;;5071423;28;21053;-68
2022/04/21 00:05:16;;;;;;;3.30;1.30;;;18.00;55.70;;;;;;5070124;28;20459;-68
2022/04/21 00:07:47;;;;;;;1.40;1.30;;;18.00;56.00;;;;;;5071709;28;20525;-67
2022/04/21 00:10:16;;;;;;;1.30;1.20;;;18.00;56.20;;;;;;5071527;28;20928;-67
2022/04/21 00:12:44;;;;;;;3.30;1.30;;;18.00;56.10;;;;;;5071548;28;20986;-67
2022/04/21 00:15:14;;;;;;;1.50;1.40;;;18.00;56.00;;;;;;5071779;28;20515;-67
2022/04/21 00:17:43;;;;;;;1.30;1.20;;;18.00;55.90;;;;;;5067319;28;20464;-66
2022/04/21 00:20:12;;;;;;;1.50;1.40;;;18.00;56.00;;;;;;5072370;28;20438;-67
2022/04/21 00:25:27;;;;;;;2.50;1.57;;;18.00;56.00;;;;;;5064813;28;20867;-67
2022/04/21 00:27:58;;;;;;;4.83;1.43;;;18.00;56.00;;;;;;5071367;28;20474;-68
2022/04/21 00:30:28;;;;;;;2.30;1.40;;;18.00;56.20;;;;;;5072250;28;20525;-68
2022/04/21 00:32:56;;;;;;;1.30;1.20;;;18.00;56.20;;;;;;5068624;28;20514;-66
2022/04/21 00:35:25;;;;;;;1.20;1.13;;;18.00;56.20;;;;;;5068856;28;20470;-68
2022/04/21 00:37:55;;;;;;;2.27;1.47;;;18.00;56.20;;;;;;5071086;28;20833;-68
2022/04/21 00:40:26;;;;;;;1.53;1.43;;;18.00;56.20;;;;;;5070757;28;20961;-67
2022/04/21 00:42:55;;;;;;;1.33;1.23;;;18.00;56.30;;;;;;5071237;28;20463;-67
2022/04/21 00:45:24;;;;;;;1.40;1.27;;;18.00;56.40;;;;;;5071251;28;20456;-68
2022/04/21 00:47:56;;;;;;;1.30;1.20;;;17.90;56.20;;;;;;5071348;28;20544;-67
2022/04/21 00:50:27;;;;;;;1.80;1.33;;;18.00;57.50;;;;;;5070393;28;20450;-67
2022/04/21 00:52:56;;;;;;;1.20;1.10;;;17.90;56.40;;;;;;5071526;28;20945;-68
2022/04/21 00:55:24;;;;;;;1.70;1.40;;;17.90;56.40;;;;;;5060001;28;20467;-68
2022/04/21 00:57:55;;;;;;;1.17;1.07;;;17.90;56.30;;;;;;5070950;28;20557;-67
2022/04/21 01:00:24;;;;;;;0.97;0.97;;;17.90;56.40;;;;;;5071643;28;20488;-68
2022/04/21 01:02:52;;;;;;;1.53;1.30;;;17.90;56.40;;;;;;5070827;28;20462;-67
2022/04/21 01:05:33;;;;;;;1.40;1.30;;;17.90;56.40;;;;;;5070312;28;20458;-69
2022/04/21 01:08:03;;;;;;;1.70;1.33;;;17.90;56.40;;;;;;5071108;28;20462;-68
2022/04/21 01:10:33;;;;;;;1.30;1.20;;;17.90;56.50;;;;;;5065823;28;20451;-68
2022/04/21 01:13:04;;;;;;;1.30;1.20;;;17.90;56.40;;;;;;5070974;28;20466;-67
2022/04/21 01:15:32;;;;;;;1.47;1.37;;;17.90;56.50;;;;;;5071037;28;20843;-68
2022/04/21 01:18:06;;;;;;;1.23;1.13;;;17.90;56.40;;;;;;5068564;28;20473;-68
2022/04/21 01:20:35;;;;;;;1.83;1.23;;;17.90;56.50;;;;;;5071481;28;20480;-68
2022/04/21 01:23:04;;;;;;;2.07;1.27;;;17.90;57.60;;;;;;5070959;28;20883;-66
2022/04/21 01:25:38;;;;;;;1.33;1.13;;;17.90;56.40;;;;;;5065919;28;20461;-67
2022/04/21 01:28:08;;;;;;;1.47;1.20;;;17.90;56.60;;;;;;5070706;28;20465;-68
2022/04/21 01:30:36;;;;;;;1.07;1.00;;;17.90;56.50;;;;;;5071529;28;20439;-67
2022/04/21 01:33:04;;;;;;;1.23;1.13;;;17.90;56.60;;;;;;5055339;28;20483;-68
2022/04/21 01:35:32;;;;;;;1.73;1.27;;;17.90;56.60;;;;;;5066152;28;20454;-67
2022/04/21 01:41:11;;;;;;;1.23;1.13;;;17.90;56.70;;;;;;5033160;28;20508;-67
2022/04/21 01:43:43;;;;;;;1.30;1.20;;;17.90;56.70;;;;;;5070937;28;20460;-68
2022/04/21 01:46:11;;;;;;;1.20;1.10;;;17.80;56.50;;;;;;5070726;28;20829;-66
2022/04/21 01:48:42;;;;;;;1.47;1.37;;;17.90;56.70;;;;;;5069484;28;20512;-67
2022/04/21 01:51:10;;;;;;;1.50;1.40;;;17.80;56.70;;;;;;5070141;28;20939;-66
2022/04/21 01:53:39;;;;;;;1.63;1.53;;;17.80;56.70;;;;;;5070534;28;20478;-67
2022/04/21 01:56:09;;;;;;;1.53;1.43;;;17.80;56.70;;;;;;5070809;28;20870;-68
2022/04/21 01:58:37;;;;;;;1.43;1.33;;;17.80;56.80;;;;;;5074434;28;20519;-68
2022/04/21 02:01:05;;;;;;;1.83;1.70;;;17.80;56.80;;;;;;5074100;28;21782;-69
2022/04/21 02:03:33;;;;;;;1.63;1.53;;;17.80;56.70;;;;;;5073712;28;20804;-66
2022/04/21 02:06:02;;;;;;;1.53;1.40;;;17.80;56.70;;;;;;5074080;28;20439;-66
2022/04/21 02:08:31;;;;;;;1.47;1.37;;;17.80;56.70;;;;;;5074029;28;20485;-67
2022/04/21 02:11:00;;;;;;;1.70;1.60;;;17.80;56.90;;;;;;5059823;28;20447;-67
2022/04/21 02:13:29;;;;;;;1.40;1.30;;;17.80;56.90;;;;;;5074249;28;20462;-67
2022/04/21 02:15:57;;;;;;;1.30;1.20;;;17.80;56.80;;;;;;5089883;28;20847;-68
2022/04/21 02:18:25;;;;;;;1.33;1.23;;;17.80;56.90;;;;;;5067793;28;20471;-66
2022/04/21 02:20:53;;;;;;;1.60;1.40;;;17.80;56.90;;;;;;5063694;28;20431;-66
2022/04/21 02:23:22;;;;;;;1.53;1.43;;;17.80;57.00;;;;;;5073741;28;20466;-68
2022/04/21 02:25:50;;;;;;;1.80;1.70;;;17.80;56.90;;;;;;5073465;28;20495;-67
2022/04/21 02:28:22;;;;;;;1.70;1.53;;;17.80;57.00;;;;;;5073332;28;20466;-68
2022/04/21 02:30:50;;;;;;;1.40;1.30;;;17.80;57.00;;;;;;5073480;28;20442;-68
2022/04/21 02:33:18;;;;;;;1.60;1.20;;;17.70;57.20;;;;;;5072447;28;20466;-68
2022/04/21 02:35:47;;;;;;;1.80;1.33;;;17.70;56.90;;;;;;5069763;28;20515;-66
2022/04/21 02:38:15;;;;;;;1.60;1.30;;;17.70;57.00;;;;;;5070996;28;20458;-67
2022/04/21 02:40:45;;;;;;;1.20;1.10;;;17.70;57.00;;;;;;5073300;28;20492;-67
2022/04/21 02:43:13;;;;;;;1.30;1.00;;;17.70;57.00;;;;;;5073291;28;20474;-67
2022/04/21 02:45:43;;;;;;;1.27;1.17;;;17.70;57.00;;;;;;5073554;28;20538;-68
2022/04/21 02:48:11;;;;;;;1.60;1.20;;;17.70;57.00;;;;;;5068279;28;20475;-67
2022/04/21 02:50:40;;;;;;;2.57;1.33;;;17.70;57.00;;;;;;5069979;28;20521;-68
2022/04/21 02:53:08;;;;;;;1.40;1.30;;;17.70;57.10;;;;;;5073307;28;20475;-68
2022/04/21 02:58:25;;;;;;;1.37;1.27;;;17.70;57.20;;;;;;5073148;28;20537;-67
2022/04/21 03:00:55;;;;;;;1.80;1.33;;;17.70;57.20;;;;;;5073147;28;20434;-67
2022/04/21 03:03:23;;;;;;;1.33;1.23;;;17.70;57.20;;;;;;5067492;28;20474;-66
2022/04/21 03:05:51;;;;;;;1.50;1.40;;;17.70;57.20;;;;;;5073122;28;20438;-68
2022/04/21 03:08:19;;;;;;;4.33;1.57;;;17.70;57.30;;;;;;5073170;28;20557;-68
2022/04/21 03:10:47;;;;;;;2.07;1.40;;;17.70;57.20;;;;;;5072824;28;20446;-65
2022/04/21 03:13:15;;;;;;;1.63;1.13;;;17.60;57.20;;;;;;5073067;28;20874;-67
2022/04/21 03:15:43;;;;;;;1.30;1.20;;;17.60;57.20;;;;;;5072833;28;20846;-68
2022/04/21 03:18:13;;;;;;;1.30;1.20;;;17.60;57.20;;;;;;5070872;28;20519;-67
2022/04/21 03:26:17;;;;;;;1.40;1.30;;;17.60;57.30;;;;;;5064843;28;20461;-67
2022/04/21 03:28:45;;;;;;;1.50;1.40;;;17.60;57.30;;;;;;5072714;28;20454;-67
2022/04/21 03:31:13;;;;;;;1.20;1.10;;;17.60;57.30;;;;;;5073382;28;20792;-66
2022/04/21 03:33:43;;;;;;;1.40;1.30;;;17.60;57.40;;;;;;5063612;28;20489;-66
2022/04/21 03:36:12;;;;;;;1.30;1.20;;;17.60;57.40;;;;;;5071531;28;20465;-67
2022/04/21 03:38:40;;;;;;;1.40;1.30;;;17.60;57.30;;;;;;5072338;28;20827;-66
2022/04/21 03:41:08;;;;;;;1.43;1.23;;;17.60;57.40;;;;;;5072191;28;20990;-67
2022/04/21 03:43:36;;;;;;;1.40;1.30;;;17.60;57.40;;;;;;5072742;28;20619;-67
2022/04/21 03:46:04;;;;;;;1.83;1.30;;;17.60;57.50;;;;;;5072260;28;20912;-68
2022/04/21 03:48:32;;;;;;;2.30;1.50;;;17.60;57.50;;;;;;5072595;28;20528;-66
2022/04/21 03:51:02;;;;;;;1.57;1.40;;;17.60;57.50;;;;;;5069829;28;20470;-67
2022/04/21 03:53:30;;;;;;;1.27;1.17;;;17.50;57.40;;;;;;5072260;28;20814;-66
2022/04/21 03:55:59;;;;;;;1.60;1.50;;;17.50;57.50;;;;;;5053320;28;20530;-67
2022/04/21 03:58:27;;;;;;;1.60;1.50;;;17.50;57.40;;;;;;5052127;28;20517;-66
2022/04/21 04:00:55;;;;;;;0.90;0.80;;;17.50;57.30;;;;;;5068872;28;20438;-68
2022/04/21 04:03:23;;;;;;;1.60;1.50;;;17.50;57.40;;;;;;5053925;28;20462;-67
2022/04/21 04:05:51;;;;;;;1.30;1.20;;;17.50;57.50;;;;;;5069809;28;20561;-67
2022/04/21 04:11:06;;;;;;;1.33;1.23;;;17.50;57.50;;;;;;5071737;28;20435;-68
2022/04/21 04:13:34;;;;;;;2.47;1.30;;;17.50;57.50;;;;;;5071788;28;20462;-66
2022/04/21 04:16:02;;;;;;;1.60;1.50;;;17.50;57.50;;;;;;5072092;28;20438;-67
2022/04/21 04:18:31;;;;;;;1.50;1.40;;;17.40;57.40;;;;;;5069078;28;20874;-68
2022/04/21 04:20:59;;;;;;;1.60;1.50;;;17.40;57.50;;;;;;5061812;28;20442;-67
2022/04/21 04:23:28;;;;;;;1.47;1.37;;;17.40;57.40;;;;;;5071789;28;20458;-65
2022/04/21 04:25:57;;;;;;;1.47;1.37;;;17.40;57.50;;;;;;5070012;28;20447;-67
2022/04/21 04:28:25;;;;;;;1.63;1.50;;;17.40;57.50;;;;;;5071065;28;20552;-65
2022/04/21 04:30:53;;;;;;;1.63;1.53;;;17.40;57.50;;;;;;5071763;28;20430;-67
2022/04/21 04:33:24;;;;;;;1.50;1.40;;;17.40;57.50;;;;;;5071106;28;20462;-67
2022/04/21 04:35:52;;;;;;;1.10;1.10;;;17.40;57.60;;;;;;5069915;28;20435;-67
2022/04/21 04:38:20;;;;;;;1.30;1.20;;;17.40;57.60;;;;;;5071643;28;20470;-68
2022/04/21 04:40:49;;;;;;;1.47;1.37;;;17.40;57.60;;;;;;5070000;28;20492;-66
2022/04/21 04:43:17;;;;;;;2.00;1.33;;;17.40;57.50;;;;;;5071434;28;20495;-68
2022/04/21 04:48:31;;;;;;;1.30;1.20;;;17.40;57.70;;;;;;5061808;28;21207;-67
2022/04/21 04:51:00;;;;;;;1.63;1.53;;;17.30;57.50;;;;;;5068332;28;20430;-68
2022/04/21 04:53:28;;;;;;;1.60;1.40;;;17.30;57.50;;;;;;5071122;28;20531;-66
2022/04/21 04:55:57;;;;;;;1.60;1.50;;;17.30;57.40;;;;;;5071424;28;20488;-68
2022/04/21 04:58:25;;;;;;;1.47;1.37;;;17.30;57.60;;;;;;5070595;28;20516;-67
2022/04/21 05:00:55;;;;;;;2.40;1.37;;;17.30;57.60;;;;;;5071293;28;20472;-67
2022/04/21 05:03:24;;;;;;;1.57;1.37;;;17.30;57.60;;;;;;5051140;28;20485;-66
2022/04/21 05:05:52;;;;;;;1.00;1.00;;;17.30;57.70;;;;;;5069500;28;20434;-67
2022/04/21 05:08:20;;;;;;;1.50;1.40;;;17.30;57.70;;;;;;5069756;28;20470;-67
2022/04/21 05:10:53;;;;;;;1.40;1.30;;;17.30;57.60;;;;;;5062772;28;20430;-66
2022/04/21 05:13:23;;;;;;;1.67;1.50;;;17.30;57.70;;;;;;5069952;28;20466;-67
2022/04/21 05:15:51;;;;;;;1.23;1.13;;;17.30;57.70;;;;;;5071444;28;20496;-67
2022/04/21 05:18:20;;;;;;;2.13;1.50;;;17.30;57.70;;;;;;5063946;28;20466;-67
2022/04/21 05:20:48;;;;;;;1.90;1.80;;;17.30;57.80;;;;;;5066556;28;20435;-67
2022/04/21 05:23:20;;;;;;;1.90;1.80;;;17.30;57.80;;;;;;5070591;28;20474;-67
2022/04/21 05:25:48;;;;;;;1.80;1.67;;;17.30;57.80;;;;;;5062217;28;20480;-66
2022/04/21 05:28:17;;;;;;;1.30;1.20;;;17.30;57.80;;;;;;5070412;28;20490;-67
2022/04/21 05:30:55;;;;;;;1.43;1.33;;;17.20;57.80;;;;;;5073819;28;20430;-66
2022/04/21 05:33:25;;;;;;;1.70;1.60;;;17.20;57.80;;;;;;5068194;28;20476;-68
2022/04/21 05:35:54;;;;;;;1.70;1.60;;;17.20;57.80;;;;;;5074705;28;20449;-67
2022/04/21 05:38:23;;;;;;;1.63;1.50;;;17.20;57.80;;;;;;5074954;28;20477;-67
2022/04/21 05:40:52;;;;;;;1.70;1.60;;;17.20;57.90;;;;;;5070050;28;20491;-67
2022/04/21 05:43:23;;;;;;;1.93;1.83;;;17.20;59.00;;;;;;5074064;28;20894;-67
2022/04/21 05:45:53;;;;;;;1.40;1.30;;;17.20;57.90;;;;;;5074862;28;20434;-67
2022/04/21 05:48:22;;;;;;;1.60;1.40;;;17.20;58.10;;;;;;5063306;28;20493;-66
2022/04/21 05:50:53;;;;;;;2.73;1.60;;;17.20;58.10;;;;;;5072091;28;20512;-67
2022/04/21 05:53:23;;;;;;;1.60;1.50;;;17.20;58.10;;;;;;5073776;28;20516;-66
2022/04/21 05:55:54;;;;;;;2.20;1.93;;;17.20;58.10;;;;;;5071758;28;20452;-66
2022/04/21 05:58:24;;;;;;;1.60;1.50;;;17.20;58.10;;;;;;5074242;28;20474;-67
2022/04/21 06:00:54;;;;;;;1.73;1.63;;;17.20;58.20;;;;;;5074625;28;20773;-67
2022/04/21 06:03:28;;;;;;;1.80;1.70;;;17.20;58.10;;;;;;5060208;28;20994;-67
2022/04/21 06:05:56;;;;;;;2.97;1.87;;;17.20;58.10;;;;;;5068490;28;20879;-67
2022/04/21 06:08:24;;;;;;;3.20;1.60;;;17.20;58.30;;;;;;5074178;28;20516;-66
2022/04/21 06:10:53;;;;;;;1.73;1.63;;;17.20;58.20;;;;;;5070079;28;20485;-67
2022/04/21 06:13:21;;;;;;;1.63;1.53;;;17.20;58.10;;;;;;5074057;28;20466;-66
2022/04/21 06:15:49;;;;;;;1.30;1.20;;;17.20;58.10;;;;;;5074583;28;20442;-67
2022/04/21 06:18:18;;;;;;;1.70;1.60;;;17.20;58.20;;;;;;5072517;28;20466;-67
2022/04/21 06:20:47;;;;;;;1.80;1.53;;;17.20;58.20;;;;;;5055042;28;20455;-67
2022/04/21 06:23:15;;;;;;;1.80;1.70;;;17.20;58.30;;;;;;5073372;28;20879;-67
2022/04/21 06:25:44;;;;;;;1.10;1.00;;;17.20;58.20;;;;;;5072012;28;20438;-66
2022/04/21 06:28:13;;;;;;;1.90;1.80;;;17.10;58.30;;;;;;5072871;28;20486;-67
2022/04/21 06:30:41;;;;;;;1.93;1.80;;;17.10;58.10;;;;;;5074563;28;20442;-67
2022/04/21 06:33:17;;;;;;;2.27;2.07;;;17.10;58.20;;;;;;5070253;28;20484;-66
2022/04/21 06:35:45;;;;;;;2.00;1.77;;;17.10;58.10;;;;;;5073916;28;20457;-66
2022/04/21 06:38:14;;;;;;;2.23;1.73;;;17.10;58.10;;;;;;5073668;28;20493;-67
2022/04/21 06:40:42;;;;;;;5.70;2.20;;;17.10;57.70;;;;;;5057137;28;20522;-67
2022/04/21 06:48:51;;;;;;;2.03;1.50;;;17.20;57.20;;;;;;5068493;28;20457;-66
2022/04/21 06:51:20;;;;;;;1.73;1.63;;;17.20;57.50;;;;;;5073438;28;20858;-66
2022/04/21 06:53:48;;;;;;;2.20;1.53;;;17.20;57.80;;;;;;5071138;28;20458;-66
2022/04/21 06:56:16;;;;;;;2.80;1.80;;;17.20;58.00;;;;;;5067073;28;20988;-67
2022/04/21 06:58:44;;;;;;;2.20;1.60;;;17.20;58.10;;;;;;5073640;28;20477;-67
2022/04/21 07:01:12;;;;;;;1.50;1.40;;;17.20;58.10;;;;;;5070829;28;20446;-67
2022/04/21 07:03:40;;;;;;;1.40;1.30;;;17.20;58.10;;;;;;5063047;28;20479;-68
2022/04/21 07:06:11;;;;;;;1.00;1.00;;;17.20;58.00;;;;;;5073423;28;20847;-67
2022/04/21 07:08:39;;;;;;;1.97;1.57;;;17.20;58.00;;;;;;5072701;28;20516;-67
2022/04/21 07:11:07;;;;;;;1.40;1.30;;;17.30;58.10;;;;;;5073251;28;20524;-67
2022/04/21 07:13:35;;;;;;;2.13;1.53;;;17.30;58.00;;;;;;5072418;28;20520;-66
2022/04/21 07:16:03;;;;;;;1.30;1.20;;;17.30;58.10;;;;;;5073260;28;20981;-68
2022/04/21 07:18:32;;;;;;;1.30;1.17;;;17.30;58.00;;;;;;5071197;28;20508;-67
2022/04/21 07:21:00;;;;;;;1.40;1.30;;;17.30;57.90;;;;;;5064216;28;20426;-68
2022/04/21 07:23:30;;;;;;;1.43;1.20;;;17.30;58.00;;;;;;5071216;28;20477;-67
2022/04/21 07:25:58;;;;;;;1.37;1.27;;;17.30;57.90;;;;;;5064018;28;20866;-68
2022/04/21 07:28:26;;;;;;;1.20;1.10;;;17.30;57.90;;;;;;5071497;28;20501;-67
2022/04/21 07:30:54;;;;;;;1.40;1.30;;;17.30;57.90;;;;;;5073102;28;20430;-68
2022/04/21 07:33:23;;;;;;;1.50;1.40;;;17.30;57.90;;;;;;5064994;28;20477;-68
2022/04/21 07:35:52;;;;;;;1.30;1.20;;;17.30;57.90;;;;;;5069819;28;20441;-68
2022/04/21 07:38:21;;;;;;;1.60;1.50;;;17.30;57.80;;;;;;5070120;28;20474;-68
2022/04/21 07:40:53;;;;;;;1.23;1.13;;;17.30;57.80;;;;;;5064834;28;20438;-67
2022/04/21 07:43:22;;;;;;;1.90;1.53;;;17.30;57.70;;;;;;5072053;28;20481;-67
2022/04/21 07:45:51;;;;;;;1.60;1.30;;;17.30;57.60;;;;;;5072701;28;20774;-67
2022/04/21 07:48:19;;;;;;;1.43;1.33;;;17.30;57.60;;;;;;5068184;28;20462;-67
2022/04/21 07:50:49;;;;;;;2.20;1.53;;;17.30;57.50;;;;;;5072421;28;20924;-68
2022/04/21 07:53:21;;;;;;;2.20;1.47;;;17.30;57.60;;;;;;5062272;28;20458;-68
2022/04/21 07:55:52;;;;;;;1.47;1.17;;;17.40;57.60;;;;;;5057131;28;20987;-67
2022/04/21 07:58:21;;;;;;;1.20;1.10;;;17.30;57.60;;;;;;5071596;28;20832;-68
2022/04/21 08:00:50;;;;;;;1.37;1.27;;;17.40;57.70;;;;;;5072269;28;20430;-65
2022/04/21 08:03:19;;;;;;;2.20;1.70;;;17.30;57.70;;;;;;5071054;28;20474;-66
2022/04/21 08:05:48;;;;;;;2.13;1.93;;;17.40;57.70;;;;;;5070821;28;20446;-66
2022/04/21 08:08:16;;;;;;;1.93;1.20;;;17.30;57.60;;;;;;5070391;28;20496;-66
2022/04/21 08:10:45;;;;;;;1.30;1.20;;;17.40;57.60;;;;;;5070015;28;20445;-66
2022/04/21 08:13:19;;;;;;;1.67;1.57;;;17.40;57.70;;;;;;5071235;28;20543;-66
2022/04/21 08:15:48;;;;;;;1.30;1.20;;;17.30;57.60;;;;;;5071746;28;20931;-66
2022/04/21 08:18:17;;;;;;;2.17;1.97;;;17.40;57.60;;;;;;5056971;28;20844;-67
2022/04/21 08:20:48;;;;;;;1.60;1.50;;;17.30;57.50;;;;;;5067835;28;20438;-66
2022/04/21 08:23:16;;;;;;;1.60;1.50;;;17.40;57.60;;;;;;5071244;28;20975;-67
2022/04/21 08:34:16;;;;;;;1.50;1.37;;;17.30;57.60;;;;;;5064129;28;20462;-67
2022/04/21 08:36:51;;;;;;;1.73;1.50;;;17.30;57.50;;;;;;5070948;28;20461;-68
2022/04/21 08:39:22;;;;;;;2.23;1.50;;;17.30;57.50;;;;;;5067116;28;20467;-68
2022/04/21 08:41:54;;;;;;;1.90;1.50;;;17.30;57.60;;;;;;5061271;28;20884;-68
2022/04/21 08:44:24;;;;;;;1.50;1.40;;;17.30;57.60;;;;;;5071892;28;20847;-67
2022/04/21 08:46:54;;;;;;;1.67;1.57;;;17.30;57.60;;;;;;5067643;28;20915;-68
2022/04/21 08:49:25;;;;;;;1.40;1.30;;;17.30;57.60;;;;;;5066728;28;20442;-67
2022/04/21 08:51:53;;;;;;;1.70;0.90;;;17.30;57.80;;;;;;5051421;28;20854;-68
2022/04/21 08:54:23;;;;;;;1.80;1.60;;;17.30;57.60;;;;;;5051282;28;20467;-66
2022/04/21 08:56:52;;;;;;;1.50;1.40;;;17.30;57.60;;;;;;5060004;28;20520;-68
2022/04/21 08:59:22;;;;;;;2.03;1.80;;;17.30;57.70;;;;;;5071436;28;20450;-68
2022/04/21 09:01:52;;;;;;;1.40;1.30;;;17.30;57.70;;;;;;5071648;28;20465;-67
2022/04/21 09:04:20;;;;;;;2.27;1.70;;;17.30;57.70;;;;;;5068989;28;20549;-68
2022/04/21 09:06:49;;;;;;;1.57;1.47;;;17.30;57.70;;;;;;5071198;28;20466;-68
2022/04/21 09:09:21;;;;;;;1.73;1.60;;;17.30;57.70;;;;;;5066320;28;20432;-68
2022/04/21 09:11:51;;;;;;;1.97;1.87;;;17.30;57.70;;;;;;5054817;28;20461;-66
2022/04/21 09:14:20;;;;;;;1.40;1.30;;;17.30;57.80;;;;;;5071515;28;20519;-66
2022/04/21 09:16:49;;;;;;;1.63;1.40;;;17.30;57.70;;;;;;5070674;28;20525;-70
2022/04/21 09:19:19;;;;;;;1.43;1.33;;;17.30;57.80;;;;;;5066915;28;20557;-67
2022/04/21 09:21:50;;;;;;;1.87;1.53;;;17.30;57.70;;;;;;5071246;28;20446;-68
2022/04/21 09:24:22;;;;;;;1.57;1.47;;;17.30;57.80;;;;;;5065741;28;20455;-68
2022/04/21 09:26:52;;;;;;;1.30;1.20;;;17.30;57.80;;;;;;5051208;28;20525;-68
2022/04/21 09:29:25;;;;;;;1.80;1.20;;;17.30;57.80;;;;;;5067457;28;20434;-67
2022/04/21 09:31:57;;;;;;;1.50;1.40;;;17.30;57.80;;;;;;5071134;28;20456;-67
2022/04/21 09:34:36;;;;;;;1.43;1.30;;;17.30;57.90;;;;;;5062731;28;20466;-66
2022/04/21 09:37:06;;;;;;;2.27;1.50;;;17.30;57.80;;;;;;5051177;28;20498;-67
2022/04/21 09:39:39;;;;;;;2.07;1.30;;;17.30;57.80;;;;;;5069134;28;20906;-65
2022/04/21 09:42:08;;;;;;;1.20;1.10;;;17.30;57.80;;;;;;5069561;28;20964;-67
2022/04/21 09:47:30;;;;;;;1.70;1.33;;;17.30;57.90;;;;;;5070855;28;20454;-69
2022/04/21 09:50:11;;;;;;;1.63;1.30;;;17.30;57.90;;;;;;5051041;28;20443;-67
2022/04/21 09:52:51;;;;;;;1.50;1.40;;;17.30;57.90;;;;;;5053535;28;20983;-67
2022/04/21 09:55:26;;;;;;;3.00;1.30;;;17.30;58.00;;;;;;5069613;28;20511;-67
2022/04/21 09:58:05;;;;;;;2.40;1.30;;;17.30;58.10;;;;;;5070234;28;20478;-65
2022/04/21 10:00:35;;;;;;;1.50;1.40;;;17.20;57.80;;;;;;5070499;28;20929;-68
2022/04/21 10:03:07;;;;;;;1.70;1.60;;;17.20;57.80;;;;;;5063166;28;20526;-67
2022/04/21 10:05:39;;;;;;;1.47;1.37;;;17.30;58.00;;;;;;5069916;28;20450;-67
2022/04/21 10:08:09;;;;;;;1.73;1.43;;;17.30;58.00;;;;;;5068906;28;20825;-66
2022/04/21 10:10:47;;;;;;;1.57;1.40;;;17.30;57.90;;;;;;5058300;28;20437;-67
2022/04/21 10:13:15;;;;;;;2.50;1.30;;;17.20;57.90;;;;;;5070577;28;20496;-66
2022/04/21 10:15:44;;;;;;;1.33;1.23;;;17.30;58.00;;;;;;5071667;28;20426;-67
2022/04/21 10:18:15;;;;;;;1.40;1.30;;;17.30;57.90;;;;;;5073651;28;20457;-66
2022/04/21 10:20:45;;;;;;;2.70;1.60;;;17.30;58.00;;;;;;5058118;28;20470;-67
2022/04/21 10:23:17;;;;;;;1.57;1.43;;;17.30;57.90;;;;;;5073764;28;20469;-67
2022/04/21 10:25:45;;;;;;;1.73;1.60;;;17.30;57.90;;;;;;5060108;28;20480;-67
2022/04/21 10:28:36;;;;;;;2.00;1.80;;;17.30;57.90;;;;;;5073237;28;20465;-67
2022/04/21 10:31:30;;;;;;;3.60;1.30;;;17.30;57.90;;;;;;5074689;28;20488;-66
2022/04/21 10:34:01;;;;;;;1.63;1.53;;;17.30;57.90;;;;;;5073502;28;20466;-67
2022/04/21 10:36:42;;;;;;;2.23;1.23;;;17.20;57.70;;;;;;5073969;28;20425;-66
2022/04/21 10:39:24;;;;;;;1.40;1.30;;;17.20;57.90;;;;;;5070311;28;20883;-66
2022/04/21 10:42:15;;;;;;;1.67;1.20;;;17.20;57.80;;;;;;5053997;28;20450;-68
2022/04/21 10:44:49;;;;;;;1.03;1.03;;;17.20;57.80;;;;;;5073390;28;20450;-67
2022/04/21 10:47:36;;;;;;;2.80;1.40;;;17.20;57.80;;;;;;5067107;28;20482;-67
2022/04/21 10:50:16;;;;;;;2.27;1.93;;;17.20;57.80;;;;;;5074331;28;20469;-67
2022/04/21 10:58:50;;;;;;;1.43;1.33;;;17.20;58.00;;;;;;5053527;28;20466;-65
2022/04/21 11:01:31;;;;;;;1.77;1.40;;;17.20;58.00;;;;;;5067412;28;20462;-67
2022/04/21 11:04:12;;;;;;;2.20;2.00;;;17.20;58.00;;;;;;5053821;28;20493;-67
2022/04/21 11:06:43;;;;;;;6.30;2.03;;;17.30;55.70;;;;;;5069264;28;20844;-67
2022/04/21 11:09:40;;;;;;;4.37;2.50;;;17.30;54.60;;;;;;5067633;28;20947;-67
2022/04/21 11:12:50;;;;;;;3.00;1.80;;;17.30;55.10;;;;;;5068618;28;20984;-66
2022/04/21 11:15:33;;;;;;;1.63;1.53;;;17.30;55.20;;;;;;5070814;28;20453;-67
2022/04/21 11:18:03;;;;;;;3.30;2.10;;;17.30;56.00;;;;;;5073129;28;20485;-68
2022/04/21 11:20:31;;;;;;;5.90;1.43;;;17.30;56.10;;;;;;5060077;28;20965;-66
2022/04/21 11:22:59;;;;;;;1.40;1.30;;;17.30;56.40;;;;;;5067838;28;20474;-67
2022/04/21 11:25:32;;;;;;;3.43;1.83;;;17.30;56.40;;;;;;5057327;28;20900;-67
2022/04/21 11:28:01;;;;;;;4.43;1.57;;;17.30;56.50;;;;;;5066762;28;20469;-68
2022/04/21 11:30:31;;;;;;;2.43;1.80;;;17.30;56.50;;;;;;5073522;28;20912;-66
2022/04/21 11:33:01;;;;;;;1.83;1.73;;;17.30;56.70;;;;;;5072537;28;20557;-67
2022/04/21 11:35:30;;;;;;;4.00;1.43;;;17.30;56.70;;;;;;5072802;28;20457;-67
2022/04/21 11:37:59;;;;;;;2.07;1.60;;;17.30;56.70;;;;;;5072584;28;20466;-67
2022/04/21 11:40:34;;;;;;;2.10;1.83;;;17.30;56.70;;;;;;5058578;28;20459;-68
2022/04/21 11:43:06;;;;;;;1.60;1.50;;;17.30;56.60;;;;;;5066348;28;20512;-67
2022/04/21 11:45:36;;;;;;;2.03;1.37;;;17.30;56.70;;;;;;5073053;28;20512;-68
2022/04/21 11:48:18;;;;;;;4.40;1.57;;;17.30;56.80;;;;;;5072329;28;20469;-67
2022/04/21 11:50:47;;;;;;;1.77;1.67;;;17.30;56.80;;;;;;5072984;28;20442;-67
2022/04/21 11:53:18;;;;;;;1.80;1.70;;;17.30;56.70;;;;;;5071923;28;20910;-66
2022/04/21 11:55:50;;;;;;;2.80;1.20;;;17.30;56.70;;;;;;5065616;28;20453;-67
2022/04/21 11:58:36;;;;;;;2.27;1.40;;;17.30;56.80;;;;;;5072003;28;20883;-67
2022/04/21 12:06:39;;;;;;;2.20;1.70;;;17.30;55.90;;;;;;5059307;28;20495;-66
2022/04/21 12:09:09;;;;;;;1.50;1.40;;;17.30;56.60;;;;;;5068961;28;20450;-67
2022/04/21 12:11:39;;;;;;;2.10;1.43;;;17.30;56.50;;;;;;5058543;28;20422;-66
2022/04/21 12:14:08;;;;;;;2.80;1.70;;;17.30;56.40;;;;;;5071453;28;20952;-67
2022/04/21 12:16:47;;;;;;;1.87;1.60;;;17.30;56.30;;;;;;5072131;28;20439;-67
2022/04/21 12:19:18;;;;;;;4.40;2.13;;;17.40;56.40;;;;;;5061491;28;20464;-68
2022/04/21 12:21:55;;;;;;;3.70;1.70;;;17.40;56.40;;;;;;5071702;28;20538;-66
2022/04/21 12:24:30;;;;;;;3.50;1.63;;;17.40;56.20;;;;;;5066102;28;20969;-67
2022/04/21 12:27:00;;;;;;;2.20;2.00;;;17.30;56.10;;;;;;5052130;28;20458;-67
2022/04/21 12:29:31;;;;;;;1.67;1.57;;;17.40;56.30;;;;;;5058792;28;20476;-66
2022/04/21 12:32:04;;;;;;;1.50;1.40;;;17.40;56.00;;;;;;5071578;28;20519;-66
2022/04/21 12:34:39;;;;;;;1.77;1.60;;;17.40;56.10;;;;;;5067958;28;20498;-67
2022/04/21 12:37:08;;;;;;;3.17;1.33;;;17.40;56.20;;;;;;5071956;28;20465;-67
2022/04/21 12:39:37;;;;;;;1.67;1.20;;;17.40;56.20;;;;;;5070558;28;20438;-68
2022/04/21 12:42:28;;;;;;;2.33;1.63;;;17.40;56.40;;;;;;5071556;28;20548;-67
2022/04/21 12:44:58;;;;;;;2.63;1.70;;;17.40;56.20;;;;;;5071455;28;20458;-68
2022/04/21 12:47:26;;;;;;;3.63;1.63;;;17.40;56.20;;;;;;5071463;28;20466;-66
2022/04/21 12:49:59;;;;;;;1.60;1.50;;;17.40;56.40;;;;;;5065397;28;20446;-69
2022/04/21 12:52:32;;;;;;;1.90;1.43;;;17.40;56.00;;;;;;5071728;28;20461;-68
2022/04/21 12:55:01;;;;;;;2.43;1.37;;;17.40;56.10;;;;;;5069897;28;20454;-68
2022/04/21 12:57:30;;;;;;;2.40;1.60;;;17.40;55.90;;;;;;5071349;28;20488;-68
2022/04/21 12:59:59;;;;;;;1.77;1.30;;;17.40;56.00;;;;;;5071712;28;20438;-67
2022/04/21 13:02:27;;;;;;;1.70;1.60;;;17.40;55.70;;;;;;5071198;28;20991;-68
2022/04/21 13:04:57;;;;;;;1.93;1.40;;;17.40;55.60;;;;;;5067784;28;20870;-67
2022/04/21 13:07:29;;;;;;;1.70;1.60;;;17.40;55.70;;;;;;5071557;28;20469;-68
2022/04/21 13:09:58;;;;;;;2.23;1.40;;;17.40;55.50;;;;;;5069763;28;20430;-67
2022/04/21 13:12:26;;;;;;;1.50;1.40;;;17.40;55.90;;;;;;5070791;28;20454;-67
2022/04/21 13:14:56;;;;;;;1.70;1.60;;;17.40;56.00;;;;;;5071456;28;20462;-68
2022/04/21 13:17:24;;;;;;;1.87;1.70;;;17.40;56.20;;;;;;5063644;28;20478;-67
2022/04/21 13:19:52;;;;;;;1.80;1.70;;;17.50;56.40;;;;;;5059471;28;20978;-67
2022/04/21 13:22:19;;;;;;;1.97;1.40;;;17.50;56.40;;;;;;5070786;28;20561;-68
2022/04/21 13:24:47;;;;;;;2.63;1.60;;;17.50;57.50;;;;;;5068401;28;21031;-68
2022/04/21 13:27:16;;;;;;;1.53;1.43;;;17.50;56.20;;;;;;5071061;28;20458;-67
2022/04/21 13:29:45;;;;;;;2.10;1.73;;;17.50;56.50;;;;;;5071604;28;20437;-67
2022/04/21 13:35:00;;;;;;;2.00;1.50;;;17.50;56.40;;;;;;5057476;28;20500;-66
2022/04/21 13:37:28;;;;;;;1.90;1.80;;;17.50;56.60;;;;;;5069524;28;20539;-67
2022/04/21 13:39:56;;;;;;;2.70;1.80;;;17.50;56.80;;;;;;5066458;28;20821;-68
2022/04/21 13:42:24;;;;;;;1.87;1.77;;;17.50;56.70;;;;;;5071111;28;20465;-67
2022/04/21 13:44:52;;;;;;;1.83;1.50;;;17.60;56.50;;;;;;5068983;28;20513;-67
2022/04/21 13:47:42;;;;;;;1.80;1.50;;;17.60;56.70;;;;;;5060720;28;21216;-67
2022/04/21 13:50:10;;;;;;;1.90;1.63;;;17.60;56.40;;;;;;5062047;28;20932;-68
2022/04/21 13:52:41;;;;;;;2.13;1.30;;;17.60;56.60;;;;;;5075151;28;20527;-67
2022/04/21 13:55:10;;;;;;;1.30;1.20;;;17.60;56.70;;;;;;5073310;28;20817;-67